M I D A S
Marine Information and Data Acquisition System
Tripno 1994 of the Zeeleeuw from 2010-09-08 07:20:12 to 2010-09-09 05:43:15
Back to CruiseResearch ActivitiesStationsMapUnderway DataData graphs

EquipmentUnitsComment
TimeDGPSUTC
LatitudeDGPSDM.mWGS84
LongitudeDGPSDM.mWGS84
HeadingGyrodeg 
SOGDGPSknotsSpeed over ground
COGDGPSdegCourse over ground
DepthEcho soundermeters200 kHz
Missing or incorrect values are displayed as -999
Navigation data collected by the RV Zeeleeuw from 2010-09-08 06:47:21 to 2010-09-09 10:43:14
                                                                                    Next 1000 lines
Time Latitude Longitude Heading SOG COG Depth
2010-09-08 06:47:31 51°13.664 2°55.96 125.8 -999 181 4.6
2010-09-08 06:47:36 51°13.664 2°55.96 125.8 -999 148 4.6
2010-09-08 06:47:40 51°13.664 2°55.96 125.8 -999 211 4.6
2010-09-08 06:47:46 51°13.664 2°55.96 125.8 0.1 321 4.6
2010-09-08 06:47:51 51°13.664 2°55.96 125.8 0.1 310 4.6
2010-09-08 06:47:56 51°13.664 2°55.96 125.8 -999 293 4.6
2010-09-08 06:48:01 51°13.664 2°55.96 125.8 -999 127 4.6
2010-09-08 06:48:06 51°13.664 2°55.96 125.8 -999 104 4.6
2010-09-08 06:48:11 51°13.664 2°55.96 125.8 -999 22 4.6
2010-09-08 06:48:16 51°13.664 2°55.96 125.9 -999 129 4.8
2010-09-08 06:48:20 51°13.663 2°55.96 125.9 0.1 206 4.6
2010-09-08 06:48:26 51°13.664 2°55.96 125.9 0.2 239 4.6
2010-09-08 06:48:31 51°13.664 2°55.96 125.9 -999 352 4.6
2010-09-08 06:48:36 51°13.664 2°55.961 125.9 0.1 100 4.6
2010-09-08 06:48:41 51°13.664 2°55.961 125.9 0.2 82 4.6
2010-09-08 06:48:46 51°13.664 2°55.96 125.8 0.1 3 4.6
2010-09-08 06:48:51 51°13.664 2°55.96 125.8 0.1 -999 4.6
2010-09-08 06:48:56 51°13.664 2°55.96 125.7 0.1 39 4.6
2010-09-08 06:49:01 51°13.664 2°55.96 125.7 -999 133 4.5
2010-09-08 06:49:06 51°13.663 2°55.961 125.7 0.1 136 4.6
2010-09-08 06:49:11 51°13.663 2°55.961 125.6 0.1 126 4.6
2010-09-08 06:49:16 51°13.663 2°55.961 125.6 0.1 107 4.6
2010-09-08 06:49:21 51°13.663 2°55.961 125.6 -999 166 4.6
2010-09-08 06:49:26 51°13.663 2°55.96 125.7 0.1 271 4.6
2010-09-08 06:49:31 51°13.663 2°55.96 125.7 0.1 218 4.7
2010-09-08 06:49:36 51°13.663 2°55.961 125.7 -999 129 4.6
2010-09-08 06:49:41 51°13.663 2°55.961 125.7 -999 30 4.7
2010-09-08 06:49:46 51°13.663 2°55.961 125.7 0.1 305 4.6
2010-09-08 06:49:51 51°13.664 2°55.961 125.7 0.1 332 4.6
2010-09-08 06:49:56 51°13.663 2°55.961 125.7 -999 97 4.6
2010-09-08 06:50:01 51°13.664 2°55.961 125.7 -999 185 4.6
2010-09-08 06:50:06 51°13.664 2°55.961 125.7 0.1 20 4.6
2010-09-08 06:50:11 51°13.664 2°55.961 125.7 -999 104 4.6
2010-09-08 06:50:16 51°13.663 2°55.961 125.7 -999 151 4.6
2010-09-08 06:50:20 51°13.664 2°55.961 125.7 0.1 262 4.6
2010-09-08 06:50:26 51°13.664 2°55.961 125.7 0.1 332 4.6
2010-09-08 06:50:31 51°13.663 2°55.961 125.8 -999 141 4.6
2010-09-08 06:50:36 51°13.663 2°55.961 125.8 -999 126 4.6
2010-09-08 06:50:41 51°13.663 2°55.961 125.8 -999 339 4.6
2010-09-08 06:50:46 51°13.663 2°55.961 125.8 -999 213 4.6
2010-09-08 06:50:51 51°13.663 2°55.961 125.8 0.1 253 4.6
2010-09-08 06:50:56 51°13.663 2°55.961 125.8 -999 232 4.6
2010-09-08 06:51:01 51°13.663 2°55.961 125.8 0.1 183 4.6
2010-09-08 06:51:06 51°13.663 2°55.961 125.8 0.1 351 4.6
2010-09-08 06:51:11 51°13.663 2°55.961 125.8 -999 5 4.6
2010-09-08 06:51:16 51°13.663 2°55.961 125.8 -999 335 4.6
2010-09-08 06:51:21 51°13.664 2°55.961 125.8 -999 49 4.6
2010-09-08 06:51:26 51°13.664 2°55.961 125.8 0.1 55 4.6
2010-09-08 06:51:31 51°13.663 2°55.961 125.8 -999 151 4.6
2010-09-08 06:51:36 51°13.663 2°55.96 125.9 -999 227 4.6
2010-09-08 06:51:41 51°13.663 2°55.96 125.9 0.1 230 4.6
2010-09-08 06:51:46 51°13.663 2°55.96 125.9 -999 300 4.6
2010-09-08 06:51:51 51°13.664 2°55.96 125.9 -999 34 4.6
2010-09-08 06:51:56 51°13.664 2°55.961 125.9 -999 112 4.6
2010-09-08 06:52:01 51°13.664 2°55.961 125.9 -999 59 4.6
2010-09-08 06:52:06 51°13.664 2°55.961 125.9 0.1 137 4.6
2010-09-08 06:52:11 51°13.664 2°55.961 125.9 -999 184 4.6
2010-09-08 06:52:16 51°13.664 2°55.961 125.9 -999 24 4.6
2010-09-08 06:52:21 51°13.664 2°55.96 125.9 0.1 221 4.6
2010-09-08 06:52:26 51°13.664 2°55.96 125.9 -999 263 4.6
2010-09-08 06:52:31 51°13.664 2°55.96 125.9 -999 128 4.6
2010-09-08 06:52:36 51°13.664 2°55.96 125.9 0.1 141 4.6
2010-09-08 06:52:41 51°13.664 2°55.96 125.9 -999 194 4.6
2010-09-08 06:52:46 51°13.663 2°55.96 125.9 -999 241 4.6
2010-09-08 06:52:51 51°13.663 2°55.96 125.9 0.1 193 4.6
2010-09-08 06:52:56 51°13.664 2°55.96 125.9 -999 160 4.6
2010-09-08 06:53:01 51°13.663 2°55.96 125.9 0.1 120 4.7
2010-09-08 06:53:06 51°13.664 2°55.96 125.9 -999 167 4.6
2010-09-08 06:53:11 51°13.664 2°55.96 125.9 -999 269 4.6
2010-09-08 06:53:16 51°13.664 2°55.96 125.9 -999 295 4.6
2010-09-08 06:53:21 51°13.664 2°55.96 125.9 0.1 270 4.7
2010-09-08 06:53:26 51°13.664 2°55.96 125.9 0.1 353 4.6
2010-09-08 06:53:31 51°13.664 2°55.96 125.9 -999 172 4.6
2010-09-08 06:53:36 51°13.664 2°55.96 125.9 0.1 211 4.6
2010-09-08 06:53:41 51°13.664 2°55.96 125.9 -999 271 4.6
2010-09-08 06:53:46 51°13.664 2°55.96 125.9 -999 305 4.6
2010-09-08 06:53:51 51°13.664 2°55.96 125.9 0.1 281 4.6
2010-09-08 06:53:56 51°13.664 2°55.96 125.9 0.1 229 4.7
2010-09-08 06:54:01 51°13.664 2°55.96 125.9 0.1 231 4.6
2010-09-08 06:54:06 51°13.664 2°55.961 125.9 0.1 105 4.6
2010-09-08 06:54:11 51°13.664 2°55.961 125.9 0.1 142 4.6
2010-09-08 06:54:16 51°13.664 2°55.961 125.9 0.1 147 4.7
2010-09-08 06:54:21 51°13.664 2°55.961 125.9 0.1 18 4.7
2010-09-08 06:54:26 51°13.664 2°55.961 125.9 0.2 30 4.7
2010-09-08 06:54:31 51°13.661 2°55.96 126 0.1 9 4.6
2010-09-08 06:54:36 51°13.657 2°55.96 126 -999 33 4.6
2010-09-08 06:54:41 51°13.657 2°55.959 126 0.1 300 4.7
2010-09-08 06:54:46 51°13.657 2°55.959 126 -999 321 4.6
2010-09-08 06:54:51 51°13.658 2°55.96 126 -999 80 4.7
2010-09-08 06:54:56 51°13.659 2°55.96 126 0.1 88 4.6
2010-09-08 06:55:01 51°13.659 2°55.96 126 -999 277 4.7
2010-09-08 06:55:06 51°13.66 2°55.96 126 -999 11 4.7
2010-09-08 06:55:11 51°13.66 2°55.96 126 -999 56 4.7
2010-09-08 06:55:16 51°13.661 2°55.96 126 -999 106 4.7
2010-09-08 06:55:20 51°13.662 2°55.96 126 -999 352 4.7
2010-09-08 06:55:26 51°13.665 2°55.96 126 0.1 32 4.7
2010-09-08 06:55:31 51°13.66 2°55.959 126 -999 14 4.7
2010-09-08 06:55:36 51°13.662 2°55.959 126 0.1 246 4.7
2010-09-08 06:55:41 51°13.665 2°55.96 126 0.1 283 4.7
2010-09-08 06:55:46 51°13.666 2°55.96 126 0.1 236 4.7
2010-09-08 06:55:51 51°13.666 2°55.961 125.9 0.1 247 4.7
2010-09-08 06:55:56 51°13.666 2°55.961 125.9 -999 301 4.7
2010-09-08 06:56:01 51°13.666 2°55.961 125.9 -999 283 4.7
2010-09-08 06:56:06 51°13.666 2°55.961 125.8 -999 333 4.7
2010-09-08 06:56:11 51°13.665 2°55.961 125.8 -999 116 4.7
2010-09-08 06:56:16 51°13.665 2°55.961 125.8 0.1 139 4.7
2010-09-08 06:56:21 51°13.665 2°55.961 125.8 -999 156 4.7
2010-09-08 06:56:26 51°13.664 2°55.961 125.9 -999 111 4.7
2010-09-08 06:56:31 51°13.662 2°55.961 125.9 -999 5 4.7
2010-09-08 06:56:36 51°13.661 2°55.96 125.9 -999 210 4.7
2010-09-08 06:56:41 51°13.66 2°55.961 126 0.1 255 4.7
2010-09-08 06:56:46 51°13.661 2°55.961 126 0.1 324 4.7
2010-09-08 06:56:51 51°13.661 2°55.961 126 0.1 316 4.7
2010-09-08 06:56:56 51°13.661 2°55.961 126 0.1 316 4.7
2010-09-08 06:57:01 51°13.662 2°55.961 126 -999 316 4.7
2010-09-08 06:57:06 51°13.661 2°55.962 126 -999 119 4.7
2010-09-08 06:57:11 51°13.66 2°55.961 126 -999 264 4.7
2010-09-08 06:57:16 51°13.661 2°55.961 126 0.1 282 4.7
2010-09-08 06:57:21 51°13.663 2°55.962 126 -999 176 4.7
2010-09-08 06:57:26 51°13.665 2°55.962 126 -999 25 4.7
2010-09-08 06:57:31 51°13.666 2°55.962 126 -999 314 4.7
2010-09-08 06:57:36 51°13.666 2°55.963 126 0.1 342 4.7
2010-09-08 06:57:41 51°13.666 2°55.962 126 -999 38 4.7
2010-09-08 06:57:46 51°13.665 2°55.962 126 -999 291 4.7
2010-09-08 06:57:51 51°13.665 2°55.962 126 -999 104 4.7
2010-09-08 06:57:56 51°13.664 2°55.962 126 0.1 62 4.7
2010-09-08 06:58:01 51°13.663 2°55.962 126 0.1 81 4.7
2010-09-08 06:58:06 51°13.662 2°55.962 126 -999 203 4.7
2010-09-08 06:58:11 51°13.662 2°55.961 126 0.1 254 4.7
2010-09-08 06:58:16 51°13.662 2°55.962 126 0.1 218 4.7
2010-09-08 06:58:21 51°13.665 2°55.962 126 0.1 204 4.7
2010-09-08 06:58:26 51°13.665 2°55.962 126 -999 134 4.7
2010-09-08 06:58:31 51°13.666 2°55.962 126 -999 182 4.7
2010-09-08 06:58:36 51°13.667 2°55.962 126 0.1 308 4.7
2010-09-08 06:58:41 51°13.668 2°55.962 126 -999 10 4.7
2010-09-08 06:58:46 51°13.667 2°55.962 126 -999 186 4.7
2010-09-08 06:58:51 51°13.667 2°55.962 126 0.1 209 4.7
2010-09-08 06:58:56 51°13.667 2°55.962 126 -999 291 4.7
2010-09-08 06:59:01 51°13.665 2°55.961 126 0.1 303 4.7
2010-09-08 06:59:06 51°13.663 2°55.961 126 0.1 355 4.7
2010-09-08 06:59:11 51°13.66 2°55.961 126 0.1 23 4.8
2010-09-08 06:59:16 51°13.66 2°55.96 126 0.1 178 4.7
2010-09-08 06:59:21 51°13.659 2°55.96 126 0.1 186 4.7
2010-09-08 06:59:26 51°13.659 2°55.96 126 0.1 232 4.6
2010-09-08 06:59:31 51°13.66 2°55.96 126 0.1 322 4.7
2010-09-08 06:59:36 51°13.661 2°55.96 126 0.1 290 4.7
2010-09-08 06:59:41 51°13.662 2°55.96 126 0.1 256 4.7
2010-09-08 06:59:46 51°13.663 2°55.961 125.9 -999 238 4.7
2010-09-08 06:59:51 51°13.664 2°55.961 125.9 -999 143 4.7
2010-09-08 06:59:56 51°13.664 2°55.961 125.9 0.1 138 4.7
2010-09-08 07:00:01 51°13.663 2°55.961 125.9 -999 163 4.8
2010-09-08 07:00:06 51°13.662 2°55.96 125.9 0.1 229 4.8
2010-09-08 07:00:11 51°13.666 2°55.961 126 -999 277 4.7
2010-09-08 07:00:16 51°13.666 2°55.962 126 -999 99 4.7
2010-09-08 07:00:20 51°13.666 2°55.962 126 -999 82 4.7
2010-09-08 07:00:26 51°13.666 2°55.962 126 -999 26 4.7
2010-09-08 07:00:31 51°13.665 2°55.961 126 0.1 306 4.7
2010-09-08 07:00:36 51°13.665 2°55.961 126 -999 338 4.7
2010-09-08 07:00:41 51°13.665 2°55.961 126 -999 90 4.7
2010-09-08 07:00:46 51°13.666 2°55.961 126 0.2 321 4.7
2010-09-08 07:00:51 51°13.666 2°55.961 126 0.1 330 4.7
2010-09-08 07:00:56 51°13.666 2°55.961 126 0.1 282 4.7
2010-09-08 07:01:01 51°13.667 2°55.962 126 0.1 235 4.7
2010-09-08 07:01:06 51°13.669 2°55.962 126 -999 263 4.7
2010-09-08 07:01:11 51°13.67 2°55.962 126 0.1 349 4.7
2010-09-08 07:01:16 51°13.67 2°55.962 126 0.1 330 4.7
2010-09-08 07:01:21 51°13.67 2°55.962 126.1 -999 59 4.7
2010-09-08 07:01:26 51°13.67 2°55.962 126.1 0.1 316 4.7
2010-09-08 07:01:31 51°13.67 2°55.962 126.1 -999 204 4.7
2010-09-08 07:01:36 51°13.67 2°55.962 126.1 0.1 95 4.7
2010-09-08 07:01:41 51°13.669 2°55.962 126.1 0.1 202 4.7
2010-09-08 07:01:46 51°13.667 2°55.962 126.1 0.1 204 4.7
2010-09-08 07:01:51 51°13.665 2°55.961 126.1 0.1 211 4.8
2010-09-08 07:01:56 51°13.663 2°55.96 126.1 0.1 235 4.7
2010-09-08 07:02:01 51°13.662 2°55.96 126.1 0.1 190 4.7
2010-09-08 07:02:06 51°13.662 2°55.96 126.1 0.1 123 4.7
2010-09-08 07:02:11 51°13.665 2°55.96 126.1 0.1 40 4.7
2010-09-08 07:02:16 51°13.667 2°55.961 126.1 -999 233 4.8
2010-09-08 07:02:20 51°13.667 2°55.961 126.1 -999 104 4.7
2010-09-08 07:02:26 51°13.668 2°55.961 126.1 -999 125 4.7
2010-09-08 07:02:31 51°13.668 2°55.961 126.1 -999 178 4.7
2010-09-08 07:02:36 51°13.667 2°55.96 126.1 -999 247 4.8
2010-09-08 07:02:41 51°13.665 2°55.96 126.1 0.1 145 4.8
2010-09-08 07:02:46 51°13.664 2°55.959 126.1 0.1 66 4.8
2010-09-08 07:02:51 51°13.664 2°55.959 126.1 0.1 10 4.8
2010-09-08 07:02:55 51°13.663 2°55.959 126.1 0.1 119 4.8
2010-09-08 07:03:01 51°13.663 2°55.959 126.1 0.1 186 4.8
2010-09-08 07:03:06 51°13.664 2°55.959 126.1 0.1 350 4.7
2010-09-08 07:03:11 51°13.66 2°55.958 126.2 -999 221 4.8
2010-09-08 07:03:16 51°13.659 2°55.957 126.2 -999 279 4.7
2010-09-08 07:03:21 51°13.658 2°55.957 126.2 0.1 345 4.8
2010-09-08 07:03:26 51°13.659 2°55.958 126.2 0.1 121 4.7
2010-09-08 07:03:31 51°13.66 2°55.958 126.2 0.1 185 4.7
2010-09-08 07:03:36 51°13.661 2°55.958 126.2 0.1 311 4.8
2010-09-08 07:03:40 51°13.661 2°55.958 126.2 0.1 315 4.8
2010-09-08 07:03:46 51°13.662 2°55.958 126.2 0.1 245 4.8
2010-09-08 07:03:51 51°13.663 2°55.959 126.2 0.2 98 4.8
2010-09-08 07:03:56 51°13.666 2°55.96 126.2 0.1 103 4.8
2010-09-08 07:04:01 51°13.667 2°55.96 126.2 0.1 20 4.8
2010-09-08 07:04:06 51°13.666 2°55.96 126.2 0.1 265 4.8
2010-09-08 07:04:11 51°13.666 2°55.96 126.2 0.1 257 4.8
2010-09-08 07:04:16 51°13.667 2°55.961 126.2 -999 6 4.7
2010-09-08 07:04:21 51°13.667 2°55.961 126.2 0.1 55 4.7
2010-09-08 07:04:26 51°13.667 2°55.961 126.2 0.1 19 4.8
2010-09-08 07:04:31 51°13.667 2°55.961 126.2 -999 267 4.8
2010-09-08 07:04:40 51°13.667 2°55.961 -999 -999 347 4.8
2010-09-08 07:04:45 51°13.667 2°55.961 126.3 0.1 79 4.8
2010-09-08 07:04:50 51°13.668 2°55.961 126.3 -999 316 4.8
2010-09-08 07:04:55 51°13.668 2°55.961 126.3 0.1 347 4.8
2010-09-08 07:05:00 51°13.667 2°55.961 126.3 -999 220 4.7
2010-09-08 07:05:04 51°13.668 2°55.96 126.3 0.1 307 4.8
2010-09-08 07:05:09 51°13.668 2°55.96 126.3 0.2 320 4.7
2010-09-08 07:05:14 51°13.667 2°55.96 126.3 0.1 297 4.7
2010-09-08 07:05:19 51°13.667 2°55.96 126.3 0.1 346 4.8
2010-09-08 07:05:24 51°13.667 2°55.961 126.3 -999 76 4.8
2010-09-08 07:05:29 51°13.667 2°55.961 126.3 -999 100 4.7
2010-09-08 07:05:34 51°13.667 2°55.961 126.3 -999 143 4.8
2010-09-08 07:05:39 51°13.667 2°55.961 126.3 -999 144 4.8
2010-09-08 07:05:44 51°13.667 2°55.961 126.3 0.1 17 4.8
2010-09-08 07:05:48 51°13.667 2°55.961 126.2 -999 172 4.7
2010-09-08 07:05:53 51°13.668 2°55.961 126.2 0.1 310 4.8
2010-09-08 07:05:58 51°13.668 2°55.961 126.2 0.2 355 4.7
2010-09-08 07:06:03 51°13.668 2°55.961 126.2 0.1 22 4.8
2010-09-08 07:06:08 51°13.667 2°55.961 126.2 0.1 89 4.8
2010-09-08 07:06:12 51°13.667 2°55.961 126.2 0.1 168 4.8
2010-09-08 07:06:17 51°13.667 2°55.961 126.2 0.1 216 4.8
2010-09-08 07:06:22 51°13.667 2°55.961 126.2 0.1 162 4.8
2010-09-08 07:06:27 51°13.667 2°55.961 126.2 0.1 68 4.8
2010-09-08 07:06:32 51°13.667 2°55.961 126.2 0.1 326 4.8
2010-09-08 07:06:37 51°13.667 2°55.961 126.2 0.2 288 4.8
2010-09-08 07:06:42 51°13.667 2°55.961 126.2 -999 296 4.8
2010-09-08 07:06:47 51°13.667 2°55.961 126.2 0.1 131 4.8
2010-09-08 07:06:52 51°13.667 2°55.961 126.2 0.1 208 4.8
2010-09-08 07:06:56 51°13.667 2°55.961 126.2 -999 307 4.8
2010-09-08 07:07:01 51°13.666 2°55.961 126.2 0.1 334 4.8
2010-09-08 07:07:06 51°13.665 2°55.96 126.3 0.1 194 4.8
2010-09-08 07:07:11 51°13.664 2°55.96 126.4 -999 53 4.8
2010-09-08 07:07:16 51°13.66 2°55.958 126.4 0.1 25 4.8
2010-09-08 07:07:20 51°13.658 2°55.957 126.4 0.1 33 4.8
2010-09-08 07:07:26 51°13.658 2°55.956 126.4 -999 41 4.8
2010-09-08 07:07:31 51°13.658 2°55.957 126.4 -999 289 4.9
2010-09-08 07:07:36 51°13.66 2°55.957 126.4 -999 238 4.8
2010-09-08 07:07:40 51°13.661 2°55.958 126.4 0.1 169 4.8
2010-09-08 07:07:46 51°13.664 2°55.959 126.3 0.1 138 4.8
2010-09-08 07:07:51 51°13.667 2°55.96 126.2 -999 155 4.8
2010-09-08 07:07:56 51°13.668 2°55.961 126.2 -999 237 4.8
2010-09-08 07:08:00 51°13.668 2°55.961 126.2 0.1 340 4.9
2010-09-08 07:08:06 51°13.668 2°55.961 126.1 0.1 330 4.8
2010-09-08 07:08:11 51°13.667 2°55.96 126.1 0.1 302 4.8
2010-09-08 07:08:16 51°13.666 2°55.96 126.1 0.1 221 4.8
2010-09-08 07:08:21 51°13.665 2°55.96 126.1 -999 131 4.9
2010-09-08 07:08:26 51°13.665 2°55.959 126.1 0.1 203 4.8
2010-09-08 07:08:31 51°13.665 2°55.959 126.1 -999 294 4.8
2010-09-08 07:08:36 51°13.664 2°55.959 126.1 0.1 310 4.8
2010-09-08 07:08:40 51°13.664 2°55.958 126.1 -999 170 4.8
2010-09-08 07:08:46 51°13.664 2°55.959 126.1 0.1 39 4.8
2010-09-08 07:08:51 51°13.665 2°55.959 126.2 0.1 350 4.8
2010-09-08 07:08:56 51°13.665 2°55.959 126.3 0.1 285 4.8
2010-09-08 07:09:00 51°13.665 2°55.959 126.3 0.1 297 4.8
2010-09-08 07:09:06 51°13.665 2°55.959 126.3 0.1 3 4.8
2010-09-08 07:09:11 51°13.665 2°55.959 126.2 -999 107 4.8
2010-09-08 07:09:16 51°13.665 2°55.959 126 0.1 192 4.9
2010-09-08 07:09:21 51°13.665 2°55.959 125.7 0.1 153 4.8
2010-09-08 07:09:26 51°13.666 2°55.959 125.6 0.1 276 4.8
2010-09-08 07:09:31 51°13.667 2°55.959 125.6 0.1 301 4.8
2010-09-08 07:09:36 51°13.667 2°55.96 125.5 -999 8 4.8
2010-09-08 07:09:41 51°13.667 2°55.96 125.5 0.1 92 4.8
2010-09-08 07:09:46 51°13.666 2°55.96 125.5 0.1 108 4.8
2010-09-08 07:09:51 51°13.665 2°55.959 125.5 0.1 119 4.8
2010-09-08 07:09:56 51°13.664 2°55.959 125.6 0.1 162 4.8
2010-09-08 07:10:01 51°13.665 2°55.959 125.6 -999 167 4.8
2010-09-08 07:10:06 51°13.665 2°55.959 125.6 -999 31 4.8
2010-09-08 07:10:11 51°13.667 2°55.96 125.6 -999 65 4.8
2010-09-08 07:10:16 51°13.668 2°55.961 125.6 -999 224 4.8
2010-09-08 07:10:21 51°13.667 2°55.96 125.6 0.2 293 4.8
2010-09-08 07:10:26 51°13.666 2°55.96 125.6 0.1 22 4.8
2010-09-08 07:10:31 51°13.665 2°55.959 125.6 -999 135 4.8
2010-09-08 07:10:36 51°13.665 2°55.959 125.6 -999 117 4.8
2010-09-08 07:10:41 51°13.665 2°55.959 125.6 0.1 92 4.9
2010-09-08 07:10:46 51°13.665 2°55.959 125.6 -999 4 4.8
2010-09-08 07:10:51 51°13.665 2°55.96 125.6 -999 168 4.8
2010-09-08 07:10:56 51°13.665 2°55.959 125.6 0.1 351 4.8
2010-09-08 07:11:01 51°13.665 2°55.959 125.7 0.1 273 4.9
2010-09-08 07:11:06 51°13.665 2°55.959 125.7 0.1 231 4.8
2010-09-08 07:11:11 51°13.664 2°55.959 125.7 0.1 283 4.9
2010-09-08 07:11:16 51°13.664 2°55.959 125.7 0.1 338 4.9
2010-09-08 07:11:21 51°13.664 2°55.958 125.7 0.1 339 4.8
2010-09-08 07:11:26 51°13.664 2°55.958 125.7 0.1 328 4.9
2010-09-08 07:11:31 51°13.664 2°55.959 125.7 0.1 13 4.9
2010-09-08 07:11:36 51°13.664 2°55.959 125.7 0.1 39 4.9
2010-09-08 07:11:41 51°13.664 2°55.959 125.7 0.2 11 4.9
2010-09-08 07:11:46 51°13.664 2°55.959 125.7 0.1 342 4.9
2010-09-08 07:11:51 51°13.663 2°55.958 125.7 0.1 223 4.9
2010-09-08 07:11:56 51°13.665 2°55.96 125.7 -999 104 4.8
2010-09-08 07:12:01 51°13.67 2°55.963 125.7 -999 323 4.8
2010-09-08 07:12:06 51°13.672 2°55.964 125.7 0.1 262 4.9
2010-09-08 07:12:11 51°13.672 2°55.965 125.7 -999 333 4.9
2010-09-08 07:12:16 51°13.671 2°55.965 125.7 -999 174 4.9
2010-09-08 07:12:21 51°13.67 2°55.964 125.7 -999 352 4.8
2010-09-08 07:12:26 51°13.669 2°55.963 125.7 -999 208 4.8
2010-09-08 07:12:31 51°13.665 2°55.961 125.7 -999 198 4.9
2010-09-08 07:12:36 51°13.663 2°55.96 125.7 0.1 43 4.8
2010-09-08 07:12:41 51°13.663 2°55.959 125.7 0.1 86 4.9
2010-09-08 07:12:46 51°13.665 2°55.961 125.7 -999 74 4.9
2010-09-08 07:12:51 51°13.664 2°55.961 126 0.1 173 4.9
2010-09-08 07:12:56 51°13.663 2°55.96 126.3 -999 201 4.9
2010-09-08 07:13:01 51°13.662 2°55.959 126.7 0.1 28 4.9
2010-09-08 07:13:06 51°13.665 2°55.961 127 0.1 120 4.8
2010-09-08 07:13:11 51°13.663 2°55.96 127.1 0.1 103 4.9
2010-09-08 07:13:16 51°13.663 2°55.96 127 0.1 30 4.9
2010-09-08 07:13:21 51°13.662 2°55.959 126.9 0.1 5 4.8
2010-09-08 07:13:26 51°13.662 2°55.959 126.8 0.1 345 4.9
2010-09-08 07:13:31 51°13.662 2°55.959 126.8 0.1 295 4.9
2010-09-08 07:13:36 51°13.662 2°55.959 126.8 -999 262 4.9
2010-09-08 07:13:40 51°13.662 2°55.959 126.9 0.1 115 4.9
2010-09-08 07:13:46 51°13.662 2°55.959 126.9 -999 210 5
2010-09-08 07:13:51 51°13.662 2°55.959 126.9 -999 75 4.9
2010-09-08 07:13:56 51°13.662 2°55.959 126.9 0.1 19 5
2010-09-08 07:14:00 51°13.662 2°55.959 126.9 0.1 305 4.8
2010-09-08 07:14:06 51°13.662 2°55.959 126.9 0.1 273 4.9
2010-09-08 07:14:11 51°13.662 2°55.959 126.9 -999 298 4.9
2010-09-08 07:14:16 51°13.662 2°55.959 127.1 0.1 312 5
2010-09-08 07:14:21 51°13.662 2°55.959 127.1 0.1 322 4.9
2010-09-08 07:14:26 51°13.662 2°55.959 127.4 0.1 324 4.9
2010-09-08 07:14:31 51°13.661 2°55.96 127.7 0.1 110 5
2010-09-08 07:14:36 51°13.661 2°55.96 128 0.1 133 5
2010-09-08 07:14:40 51°13.661 2°55.959 128.1 -999 299 5
2010-09-08 07:14:46 51°13.661 2°55.96 128 -999 16 4.9
2010-09-08 07:14:51 51°13.661 2°55.959 127.2 -999 8 4.9
2010-09-08 07:14:56 51°13.661 2°55.959 126.2 0.1 272 4.9
2010-09-08 07:15:00 51°13.661 2°55.96 125.1 0.1 28 4.9
2010-09-08 07:15:06 51°13.661 2°55.96 124.6 0.1 7 5
2010-09-08 07:15:11 51°13.661 2°55.959 124.1 0.1 241 4.9
2010-09-08 07:15:16 51°13.661 2°55.959 123.5 0.1 280 5
2010-09-08 07:15:21 51°13.661 2°55.959 122.9 0.1 319 5
2010-09-08 07:15:26 51°13.661 2°55.959 122.2 0.1 -999 4.9
2010-09-08 07:15:31 51°13.66 2°55.959 121.8 0.1 203 5
2010-09-08 07:15:36 51°13.66 2°55.959 121 0.2 212 5
2010-09-08 07:15:40 51°13.66 2°55.959 120.4 0.2 217 5
2010-09-08 07:15:46 51°13.66 2°55.959 119.8 0.2 202 5
2010-09-08 07:15:51 51°13.66 2°55.959 119.1 0.2 199 5
2010-09-08 07:15:56 51°13.66 2°55.959 118.2 0.1 172 5
2010-09-08 07:16:00 51°13.66 2°55.959 117.4 -999 132 5
2010-09-08 07:16:06 51°13.66 2°55.959 116.8 0.1 172 5
2010-09-08 07:16:11 51°13.66 2°55.959 115.8 0.1 163 5
2010-09-08 07:16:16 51°13.66 2°55.959 114.8 0.1 188 5
2010-09-08 07:16:21 51°13.66 2°55.959 113.9 -999 118 5
2010-09-08 07:16:26 51°13.659 2°55.959 113 0.1 187 5
2010-09-08 07:16:31 51°13.659 2°55.959 111.9 0.3 186 5.1
2010-09-08 07:16:36 51°13.659 2°55.958 110.9 0.4 206 5.1
2010-09-08 07:16:40 51°13.66 2°55.958 109.9 0.2 284 5.1
2010-09-08 07:16:46 51°13.659 2°55.957 109.6 0.5 256 5.1
2010-09-08 07:16:51 51°13.66 2°55.955 109.3 1 290 5.1
2010-09-08 07:16:56 51°13.661 2°55.952 109.4 1.5 286 5.1
2010-09-08 07:17:00 51°13.662 2°55.949 109.4 1.9 297 5.3
2010-09-08 07:17:07 51°13.663 2°55.942 109.4 2.3 289 -999
2010-09-08 07:17:12 51°13.664 2°55.937 109 2.5 289 -999
2010-09-08 07:17:18 51°13.666 2°55.929 109 2.9 287 -999
2010-09-08 07:17:23 51°13.668 2°55.923 109.1 3.2 293 -999
2010-09-08 07:17:29 51°13.669 2°55.914 109.3 3.5 291 -999
2010-09-08 07:17:35 51°13.671 2°55.905 109.2 3.7 292 -999
2010-09-08 07:17:40 51°13.673 2°55.897 108.6 3.9 288 -999
2010-09-08 07:17:44 51°13.674 2°55.89 107.8 4 287 -999
2010-09-08 07:17:50 51°13.676 2°55.879 107.4 4.2 288 -999
2010-09-08 07:17:55 51°13.678 2°55.871 106.7 4.3 288 -999
2010-09-08 07:18:00 51°13.68 2°55.862 106 4.1 287 -999
2010-09-08 07:18:04 51°13.681 2°55.855 105.2 4 287 -999
2010-09-08 07:18:10 51°13.683 2°55.845 104.6 4 287 -999
2010-09-08 07:18:15 51°13.684 2°55.837 103.8 4 285 -999
2010-09-08 07:18:20 51°13.685 2°55.829 103.1 3.9 284 -999
2010-09-08 07:18:24 51°13.686 2°55.821 102.1 3.8 283 -999
2010-09-08 07:18:30 51°13.687 2°55.811 101.4 3.9 282 -999
2010-09-08 07:18:35 51°13.688 2°55.802 100.3 3.9 282 -999
2010-09-08 07:18:40 51°13.689 2°55.796 99.5 3.8 281 -999
2010-09-08 07:18:44 51°13.69 2°55.79 98.6 3.7 281 -999
2010-09-08 07:18:50 51°13.691 2°55.781 97.6 3.6 280 -999
2010-09-08 07:18:55 51°13.692 2°55.773 96.5 3.4 279 -999
2010-09-08 07:19:00 51°13.693 2°55.766 95.3 3.3 278 -999
2010-09-08 07:19:04 51°13.693 2°55.76 94.4 3.3 277 12.3
2010-09-08 07:19:09 51°13.694 2°55.752 93.4 3.2 277 12.4
2010-09-08 07:19:14 51°13.695 2°55.746 92.3 3.1 277 12.2
2010-09-08 07:19:19 51°13.696 2°55.739 90.8 3 276 12.1
2010-09-08 07:19:24 51°13.696 2°55.734 89.9 2.7 276 11.9
2010-09-08 07:19:29 51°13.696 2°55.728 88.3 2.3 273 12.1
2010-09-08 07:19:34 51°13.696 2°55.724 86.8 2 274 11.8
2010-09-08 07:19:39 51°13.697 2°55.721 84.5 1.4 276 12.2
2010-09-08 07:19:44 51°13.697 2°55.72 81.6 0.8 286 12.7
2010-09-08 07:19:48 51°13.697 2°55.72 77.1 0.4 343 13
2010-09-08 07:19:53 51°13.698 2°55.722 72.9 0.8 39 13.2
2010-09-08 07:19:58 51°13.7 2°55.723 66.2 1.4 39 13.3
2010-09-08 07:20:03 51°13.702 2°55.726 58.7 1.8 37 12.8
2010-09-08 07:20:08 51°13.704 2°55.729 50.4 1.9 38 12
2010-09-08 07:20:12 51°13.706 2°55.731 42.7 2 33 11.8
2010-09-08 07:20:17 51°13.709 2°55.733 36.3 2.2 27 11.5
2010-09-08 07:20:22 51°13.712 2°55.735 30.4 2.2 21 12
2010-09-08 07:20:27 51°13.715 2°55.736 24.9 2.3 20 12.3
2010-09-08 07:20:32 51°13.718 2°55.737 19.9 2.1 14 12.2
2010-09-08 07:20:37 51°13.72 2°55.738 15.4 1.7 11 12.1
2010-09-08 07:20:41 51°13.721 2°55.738 12.5 1.1 9 11.9
2010-09-08 07:20:46 51°13.721 2°55.738 9.1 0.5 8 11.8
2010-09-08 07:20:51 51°13.721 2°55.738 4.8 0.1 316 11.8
2010-09-08 07:20:56 51°13.721 2°55.738 1.3 0.3 189 11.8
2010-09-08 07:21:00 51°13.72 2°55.738 358.9 0.5 184 11.9
2010-09-08 07:21:06 51°13.719 2°55.738 357.2 0.5 177 12
2010-09-08 07:21:11 51°13.719 2°55.738 355.9 0.4 179 12.1
2010-09-08 07:21:16 51°13.719 2°55.738 354.6 0.3 178 12.2
2010-09-08 07:21:20 51°13.719 2°55.738 353.1 -999 313 12.1
2010-09-08 07:21:26 51°13.719 2°55.737 351.1 0.3 343 12
2010-09-08 07:21:31 51°13.72 2°55.737 348.3 0.6 341 11.9
2010-09-08 07:21:36 51°13.721 2°55.735 344.7 0.8 335 11.9
2010-09-08 07:21:41 51°13.722 2°55.734 340.4 1.1 333 11.8
2010-09-08 07:21:46 51°13.725 2°55.733 336.1 1.6 333 11.5
2010-09-08 07:21:51 51°13.728 2°55.731 332.7 2.1 331 11.6
2010-09-08 07:21:56 51°13.731 2°55.728 330.4 2.7 327 11.6
2010-09-08 07:22:01 51°13.735 2°55.723 329.1 3.3 326 11.1
2010-09-08 07:22:06 51°13.739 2°55.719 328.9 3.9 327 11.2
2010-09-08 07:22:11 51°13.745 2°55.713 328.9 4.7 329 11.1
2010-09-08 07:22:16 51°13.751 2°55.707 328.6 5.1 327 10.5
2010-09-08 07:22:21 51°13.758 2°55.7 328.6 5.7 327 10.7
2010-09-08 07:22:26 51°13.766 2°55.693 329.4 6.2 327 10.4
2010-09-08 07:22:31 51°13.774 2°55.686 330.8 6.5 331 10.7
2010-09-08 07:22:36 51°13.783 2°55.679 331.3 7 330 10.5
2010-09-08 07:22:41 51°13.792 2°55.671 331.8 7.2 331 10.4
2010-09-08 07:22:46 51°13.801 2°55.663 332.8 7.7 332 10.5
2010-09-08 07:22:51 51°13.81 2°55.654 333.3 7.9 332 10.4
2010-09-08 07:22:56 51°13.82 2°55.646 333.9 8.1 333 10.6
2010-09-08 07:23:01 51°13.83 2°55.637 334.4 8.4 334 10.5
2010-09-08 07:23:06 51°13.84 2°55.628 334.4 8.6 333 10.6
2010-09-08 07:23:11 51°13.851 2°55.62 335.1 8.9 335 10.5
2010-09-08 07:23:16 51°13.862 2°55.611 335.7 9 334 10.5
2010-09-08 07:23:21 51°13.874 2°55.603 335.8 9.3 335 10.3
2010-09-08 07:23:26 51°13.887 2°55.594 336.2 9.5 335 10.1
2010-09-08 07:23:31 51°13.9 2°55.585 336.1 9.7 334 10.8
2010-09-08 07:23:36 51°13.913 2°55.576 336 9.9 334 9.8
2010-09-08 07:23:41 51°13.926 2°55.567 336.7 10.1 335 9.8
2010-09-08 07:23:46 51°13.938 2°55.557 336.4 10.3 335 10.1
2010-09-08 07:23:51 51°13.951 2°55.548 336.4 10.4 335 9.9
2010-09-08 07:23:56 51°13.964 2°55.538 336.8 10.5 335 10.1
2010-09-08 07:24:01 51°13.977 2°55.528 336.9 10.6 336 9.9
2010-09-08 07:24:06 51°13.991 2°55.518 336.2 10.6 335 9.8
2010-09-08 07:24:11 51°14.004 2°55.507 336.1 10.6 335 9.8
2010-09-08 07:24:16 51°14.017 2°55.497 336.1 10.7 335 9.7
2010-09-08 07:24:21 51°14.031 2°55.487 336 10.7 335 9.4
2010-09-08 07:24:26 51°14.044 2°55.478 335.7 10.8 335 9.6
2010-09-08 07:24:31 51°14.058 2°55.468 336.4 10.9 336 9.6
2010-09-08 07:24:36 51°14.072 2°55.457 336.1 11 334 9.6
2010-09-08 07:24:41 51°14.086 2°55.446 335.5 11 334 9.6
2010-09-08 07:24:46 51°14.099 2°55.436 336.1 11.1 335 9.7
2010-09-08 07:24:51 51°14.113 2°55.425 336.1 11 334 9.9
2010-09-08 07:24:56 51°14.127 2°55.414 336 11.1 334 9.7
2010-09-08 07:25:00 51°14.138 2°55.406 336.1 11.2 335 9.8
2010-09-08 07:25:06 51°14.155 2°55.393 335.7 11.3 334 9.7
2010-09-08 07:25:11 51°14.169 2°55.383 335.4 11.2 335 9.9
2010-09-08 07:25:16 51°14.183 2°55.373 335.7 11.2 335 -999
2010-09-08 07:25:21 51°14.197 2°55.362 335.6 11.2 335 9.9
2010-09-08 07:25:26 51°14.211 2°55.35 335.2 11.2 334 9.9
2010-09-08 07:25:31 51°14.224 2°55.339 335 11.2 334 9.6
2010-09-08 07:25:36 51°14.238 2°55.328 335.3 11.2 333 9.5
2010-09-08 07:25:41 51°14.252 2°55.316 334.6 11.3 332 9.4
2010-09-08 07:25:46 51°14.265 2°55.305 333.3 11.1 331 9.3
2010-09-08 07:25:51 51°14.279 2°55.293 332.9 11.1 332 9.3
2010-09-08 07:25:56 51°14.292 2°55.28 331.8 11.2 330 9.5
2010-09-08 07:26:00 51°14.303 2°55.27 330.6 11.1 330 9.4
2010-09-08 07:26:06 51°14.319 2°55.254 330.3 11.3 329 9.6
2010-09-08 07:26:11 51°14.332 2°55.243 330.7 11.1 331 9.3
2010-09-08 07:26:16 51°14.346 2°55.229 330.5 11.3 329 9.5
2010-09-08 07:26:20 51°14.357 2°55.219 329.6 11.4 329 9.5
2010-09-08 07:26:26 51°14.374 2°55.203 329.4 11.6 329 9.6
2010-09-08 07:26:31 51°14.387 2°55.19 329.4 11.6 329 9.6
2010-09-08 07:26:36 51°14.402 2°55.178 329.7 11.6 330 9.7
2010-09-08 07:26:41 51°14.415 2°55.163 329.4 11.6 328 9.8
2010-09-08 07:26:46 51°14.428 2°55.15 329.1 11.5 328 9.7
2010-09-08 07:26:51 51°14.442 2°55.136 329.6 11.7 328 9.7
2010-09-08 07:26:56 51°14.455 2°55.122 330.4 11.7 329 9.2
2010-09-08 07:27:01 51°14.47 2°55.109 330.4 11.9 328 9.5
2010-09-08 07:27:06 51°14.483 2°55.095 329.4 11.9 327 9.7
2010-09-08 07:27:11 51°14.498 2°55.08 328.9 12.2 327 9.8
2010-09-08 07:27:16 51°14.513 2°55.065 328.5 12.4 327 9.8
2010-09-08 07:27:21 51°14.527 2°55.05 328.9 12.6 327 10.1
2010-09-08 07:27:26 51°14.541 2°55.032 328.2 12.7 322 10.2
2010-09-08 07:27:31 51°14.553 2°55.012 326.2 12.9 316 10.2
2010-09-08 07:27:36 51°14.565 2°54.99 322.3 13.1 312 10.1
2010-09-08 07:27:41 51°14.576 2°54.967 317.4 13.2 308 10.2
2010-09-08 07:27:46 51°14.586 2°54.942 312.8 13.2 302 10.2
2010-09-08 07:27:51 51°14.594 2°54.916 308.2 13.4 299 10.3
2010-09-08 07:27:56 51°14.602 2°54.889 304.3 13.4 296 10.2
2010-09-08 07:28:00 51°14.609 2°54.867 301.5 13.5 293 10.2
2010-09-08 07:28:06 51°14.615 2°54.833 297.4 13.5 288 10.1
2010-09-08 07:28:11 51°14.62 2°54.804 292.7 13.5 285 10.2
2010-09-08 07:28:16 51°14.623 2°54.775 288.8 13.6 282 10.2
2010-09-08 07:28:21 51°14.626 2°54.745 284.9 13.5 278 10.2
2010-09-08 07:28:26 51°14.626 2°54.715 279.2 13.6 270 10.3
2010-09-08 07:28:31 51°14.624 2°54.685 273 13.6 265 10.1
2010-09-08 07:28:36 51°14.62 2°54.655 266.5 13.6 260 9.1
2010-09-08 07:28:41 51°14.615 2°54.627 261.3 13.5 256 9.1
2010-09-08 07:28:46 51°14.608 2°54.599 256.8 13.5 250 9.2
2010-09-08 07:28:51 51°14.6 2°54.572 250 13.5 243 9
2010-09-08 07:28:56 51°14.59 2°54.546 244 13.5 240 8.9
2010-09-08 07:29:01 51°14.579 2°54.522 237.4 13.5 234 9
2010-09-08 07:29:06 51°14.566 2°54.499 232.3 13.6 230 8.9
2010-09-08 07:29:11 51°14.553 2°54.477 228.6 13.7 228 9
2010-09-08 07:29:16 51°14.54 2°54.454 226.3 13.8 227 8.9
2010-09-08 07:29:21 51°14.526 2°54.431 224.9 14 227 8.9
2010-09-08 07:29:26 51°14.513 2°54.408 225.5 14 228 8.8
2010-09-08 07:29:31 51°14.501 2°54.384 226.4 14.1 229 8.8
2010-09-08 07:29:36 51°14.489 2°54.359 228.8 14.2 233 8.7
2010-09-08 07:29:41 51°14.478 2°54.333 233.4 14.2 237 8.8
2010-09-08 07:29:46 51°14.469 2°54.306 237.4 14.1 239 8.7
2010-09-08 07:29:51 51°14.459 2°54.279 239.5 14.1 239 8.6
2010-09-08 07:29:56 51°14.449 2°54.254 239.8 14 239 8.5
2010-09-08 07:30:00 51°14.44 2°54.233 238.6 14 236 8.5
2010-09-08 07:30:06 51°14.426 2°54.203 236 14.1 233 8.4
2010-09-08 07:30:11 51°14.414 2°54.178 232.3 14.1 232 8.4
2010-09-08 07:30:16 51°14.402 2°54.153 231.7 14.2 233 8.4
2010-09-08 07:30:21 51°14.391 2°54.127 232.6 14.1 234 8.2
2010-09-08 07:30:26 51°14.379 2°54.101 234.1 14.2 235 8.3
2010-09-08 07:30:31 51°14.368 2°54.076 234.7 14.2 235 8.2
2010-09-08 07:30:36 51°14.357 2°54.05 235 14.2 236 8.3
2010-09-08 07:30:41 51°14.346 2°54.024 236 14.3 236 8.2
2010-09-08 07:30:46 51°14.335 2°53.998 235.4 14.3 235 8.3
2010-09-08 07:30:51 51°14.324 2°53.972 236 14.2 235 8.2
2010-09-08 07:30:56 51°14.313 2°53.946 235.5 14.3 235 8.3
2010-09-08 07:31:01 51°14.301 2°53.92 235.8 14.3 236 8.4
2010-09-08 07:31:06 51°14.29 2°53.894 236 14.3 236 8.4
2010-09-08 07:31:11 51°14.279 2°53.867 235.8 14.4 236 8.3
2010-09-08 07:31:16 51°14.268 2°53.84 236 14.5 236 8.3
2010-09-08 07:31:21 51°14.257 2°53.814 236.2 14.5 236 8.4
2010-09-08 07:31:26 51°14.246 2°53.787 236.4 14.5 237 8.4
2010-09-08 07:31:31 51°14.234 2°53.761 236.2 14.6 236 8.4
2010-09-08 07:31:36 51°14.223 2°53.734 236 14.4 237 8.5
2010-09-08 07:31:41 51°14.212 2°53.708 236.5 14.3 236 8.4
2010-09-08 07:31:46 51°14.201 2°53.682 235.4 14.4 236 8.4
2010-09-08 07:31:51 51°14.189 2°53.655 236.1 14.4 236 8.4
2010-09-08 07:31:56 51°14.178 2°53.629 234.9 14.6 234 8.4
2010-09-08 07:32:00 51°14.169 2°53.608 235 14.4 235 8.5
2010-09-08 07:32:06 51°14.154 2°53.577 235.5 14.5 235 8.7
2010-09-08 07:32:11 51°14.143 2°53.55 235.3 14.5 236 8.4
2010-09-08 07:32:16 51°14.132 2°53.524 235.2 14.5 235 8.5
2010-09-08 07:32:21 51°14.121 2°53.498 236 14.4 236 8.4
2010-09-08 07:32:26 51°14.109 2°53.471 235.4 14.6 235 8.6
2010-09-08 07:32:31 51°14.098 2°53.444 236 14.6 236 8.5
2010-09-08 07:32:36 51°14.086 2°53.418 236.2 14.6 235 8.5
2010-09-08 07:32:40 51°14.077 2°53.396 235.7 14.6 237 8.5
2010-09-08 07:32:46 51°14.063 2°53.365 234.8 14.7 233 8.7
2010-09-08 07:32:51 51°14.051 2°53.338 234.4 14.7 237 8.6
2010-09-08 07:32:56 51°14.04 2°53.312 236.1 14.6 236 8.8
2010-09-08 07:33:00 51°14.032 2°53.29 236.9 14.7 238 8.7
2010-09-08 07:33:06 51°14.019 2°53.257 238.7 14.6 237 8.7
2010-09-08 07:33:11 51°14.009 2°53.229 238.3 14.7 240 8.7
2010-09-08 07:33:16 51°13.998 2°53.202 239.5 14.7 239 8.8
2010-09-08 07:33:21 51°13.988 2°53.174 239.8 14.7 239 8.9
2010-09-08 07:33:26 51°13.978 2°53.146 240.4 14.6 240 8.9
2010-09-08 07:33:31 51°13.967 2°53.118 240.7 14.7 239 9
2010-09-08 07:33:36 51°13.957 2°53.089 240.6 14.7 240 8.9
2010-09-08 07:33:41 51°13.947 2°53.061 241.3 14.6 240 8.8
2010-09-08 07:33:46 51°13.937 2°53.033 240.6 14.8 240 8.9
2010-09-08 07:33:51 51°13.927 2°53.005 241 14.7 240 8.9
2010-09-08 07:33:56 51°13.917 2°52.977 241 14.7 240 8.9
2010-09-08 07:34:00 51°13.908 2°52.954 240.7 14.8 240 8.9
2010-09-08 07:34:06 51°13.896 2°52.92 240.5 14.8 241 9
2010-09-08 07:34:11 51°13.886 2°52.892 241.1 14.7 240 8.9
2010-09-08 07:34:16 51°13.876 2°52.864 240.5 14.8 240 9
2010-09-08 07:34:21 51°13.866 2°52.836 241.1 14.7 241 8.9
2010-09-08 07:34:26 51°13.856 2°52.807 241.1 14.7 240 9.1
2010-09-08 07:34:31 51°13.845 2°52.779 241 14.7 240 8.9
2010-09-08 07:34:36 51°13.835 2°52.751 240.8 14.7 240 8.9
2010-09-08 07:34:40 51°13.827 2°52.728 240.3 14.8 240 9
2010-09-08 07:34:46 51°13.814 2°52.695 240.7 14.8 239 9.1
2010-09-08 07:34:51 51°13.804 2°52.667 240.1 14.7 240 9.1
2010-09-08 07:34:56 51°13.793 2°52.639 239.7 14.7 238 9.2
2010-09-08 07:35:00 51°13.785 2°52.617 239.8 14.8 240 9.1
2010-09-08 07:35:06 51°13.772 2°52.583 239.6 14.8 238 9.2
2010-09-08 07:35:11 51°13.762 2°52.555 239.4 14.8 240 9.2
2010-09-08 07:35:16 51°13.751 2°52.527 239.9 14.7 239 9.2
2010-09-08 07:35:21 51°13.742 2°52.498 240 14.8 241 9.2
2010-09-08 07:35:26 51°13.73 2°52.47 240.2 14.9 238 9.3
2010-09-08 07:35:31 51°13.721 2°52.442 240 14.8 242 9.2
2010-09-08 07:35:36 51°13.71 2°52.414 240.4 14.7 238 9.1
2010-09-08 07:35:41 51°13.7 2°52.386 238.5 14.8 239 9.3
2010-09-08 07:35:46 51°13.689 2°52.358 240.7 14.8 238 9.2
2010-09-08 07:35:51 51°13.678 2°52.331 238.4 14.9 238 9.3
2010-09-08 07:35:56 51°13.668 2°52.302 239.6 14.8 242 9.2
2010-09-08 07:36:00 51°13.659 2°52.28 239.5 14.8 236 9.3
2010-09-08 07:36:06 51°13.647 2°52.246 237.6 14.9 241 9.1
2010-09-08 07:36:11 51°13.635 2°52.219 239.1 14.8 238 9.3
2010-09-08 07:36:16 51°13.625 2°52.19 239 14.8 240 9.2
2010-09-08 07:36:21 51°13.614 2°52.162 239.1 14.9 240 9.4
2010-09-08 07:36:26 51°13.604 2°52.134 240.3 14.8 240 9.3
2010-09-08 07:36:31 51°13.594 2°52.105 240.2 14.8 240 9.4
2010-09-08 07:36:36 51°13.584 2°52.076 240.8 14.9 241 9.3
2010-09-08 07:36:40 51°13.576 2°52.053 240.7 15 241 9.4
2010-09-08 07:36:46 51°13.563 2°52.019 240.8 14.9 239 9.4
2010-09-08 07:36:51 51°13.555 2°51.989 241.9 14.9 246 9.3
2010-09-08 07:36:56 51°13.545 2°51.96 243.9 14.8 241 9.3
2010-09-08 07:37:00 51°13.538 2°51.936 243.3 14.9 247 9.4
2010-09-08 07:37:06 51°13.53 2°51.899 249 14.8 253 9.4
2010-09-08 07:37:11 51°13.527 2°51.867 254.6 14.5 260 9.3
2010-09-08 07:37:16 51°13.525 2°51.836 262.1 14.4 264 9.6
2010-09-08 07:37:21 51°13.525 2°51.805 269.5 14.2 269 9.7
2010-09-08 07:37:26 51°13.524 2°51.774 272.9 14 268 9.6
2010-09-08 07:37:31 51°13.524 2°51.744 273.9 13.2 267 9.8
2010-09-08 07:37:36 51°13.521 2°51.717 270.1 12.6 262 9.8
2010-09-08 07:37:41 51°13.515 2°51.693 263 11.8 252 9.8
2010-09-08 07:37:46 51°13.509 2°51.672 254.3 10.7 247 10
2010-09-08 07:37:51 51°13.503 2°51.652 248.3 9.9 242 10
2010-09-08 07:37:56 51°13.496 2°51.635 243.2 9.4 239 9.9
2010-09-08 07:38:00 51°13.49 2°51.622 238 8.8 235 9.9
2010-09-08 07:38:06 51°13.481 2°51.605 233.7 8.6 231 9.9
2010-09-08 07:38:11 51°13.473 2°51.592 228 8 228 10
2010-09-08 07:38:16 51°13.466 2°51.581 223.1 7.6 224 10
2010-09-08 07:38:21 51°13.459 2°51.57 220 7.1 223 10.1
2010-09-08 07:38:26 51°13.452 2°51.56 217.7 6.6 222 9.9
2010-09-08 07:38:31 51°13.445 2°51.553 214.2 6 218 10
2010-09-08 07:38:36 51°13.439 2°51.546 208.7 5.5 215 10
2010-09-08 07:38:40 51°13.435 2°51.541 204.8 4.8 212 10
2010-09-08 07:38:46 51°13.429 2°51.536 199.6 4.2 210 10.1
2010-09-08 07:38:51 51°13.425 2°51.531 194.1 3.8 209 10.1
2010-09-08 07:38:56 51°13.421 2°51.527 189.1 3.5 211 10
2010-09-08 07:39:01 51°13.417 2°51.523 185 3 214 9.9
2010-09-08 07:39:06 51°13.414 2°51.52 181.8 2.6 219 10
2010-09-08 07:39:11 51°13.412 2°51.516 179 2.4 224 10
2010-09-08 07:39:16 51°13.41 2°51.512 176.7 2.3 228 9.9
2010-09-08 07:39:21 51°13.408 2°51.509 175 2.2 229 10
2010-09-08 07:39:26 51°13.406 2°51.506 174 2.1 227 10
2010-09-08 07:39:31 51°13.404 2°51.502 172.9 2.1 229 10
2010-09-08 07:39:36 51°13.402 2°51.498 172.1 2.1 228 10
2010-09-08 07:39:40 51°13.401 2°51.495 171.6 2.1 231 10
2010-09-08 07:39:46 51°13.399 2°51.491 171.1 2.1 231 10.1
2010-09-08 07:39:51 51°13.397 2°51.487 170.7 2.1 232 10.1
2010-09-08 07:39:56 51°13.395 2°51.484 170.4 2.1 231 10.1
2010-09-08 07:40:01 51°13.394 2°51.48 170.3 2.1 232 10.1
2010-09-08 07:40:06 51°13.392 2°51.476 170.2 2 232 10.1
2010-09-08 07:40:11 51°13.39 2°51.473 170.2 2.1 232 10.1
2010-09-08 07:40:16 51°13.388 2°51.469 170.3 2.1 231 10.1
2010-09-08 07:40:20 51°13.387 2°51.467 170.5 2.1 230 10.1
2010-09-08 07:40:26 51°13.384 2°51.462 170.7 2 229 10.1
2010-09-08 07:40:31 51°13.383 2°51.459 170.9 2 231 10.1
2010-09-08 07:40:36 51°13.381 2°51.455 171.2 2.1 231 10.1
2010-09-08 07:40:40 51°13.38 2°51.453 171.4 2 229 10.1
2010-09-08 07:40:46 51°13.377 2°51.448 171.7 2 230 10.1
2010-09-08 07:40:51 51°13.376 2°51.445 172 2.1 232 10.1
2010-09-08 07:40:56 51°13.374 2°51.441 172.1 2.1 231 10.1
2010-09-08 07:41:01 51°13.372 2°51.438 172.3 2 230 10
2010-09-08 07:41:06 51°13.37 2°51.434 172.4 2 231 10
2010-09-08 07:41:11 51°13.369 2°51.431 172.6 2.1 232 10.1
2010-09-08 07:41:16 51°13.367 2°51.427 172.7 2.1 232 10
2010-09-08 07:41:21 51°13.365 2°51.424 172.8 2.1 230 9.9
2010-09-08 07:41:26 51°13.363 2°51.42 173 2.1 229 10.1
2010-09-08 07:41:31 51°13.361 2°51.417 173.3 2.1 231 10.1
2010-09-08 07:41:36 51°13.359 2°51.413 173.3 2.1 232 10.1
2010-09-08 07:41:40 51°13.358 2°51.41 173.5 2 231 10.1
2010-09-08 07:41:46 51°13.356 2°51.406 173.7 2.1 232 10.1
2010-09-08 07:41:51 51°13.354 2°51.402 174 2.1 230 10
2010-09-08 07:41:56 51°13.352 2°51.399 174.3 2.1 231 10.1
2010-09-08 07:42:01 51°13.35 2°51.395 174.4 2.1 229 10
2010-09-08 07:42:06 51°13.348 2°51.392 174.7 2.1 229 10
2010-09-08 07:42:11 51°13.346 2°51.388 175 2.1 229 10
2010-09-08 07:42:16 51°13.344 2°51.385 175.2 2.1 228 10
2010-09-08 07:42:21 51°13.342 2°51.381 175.4 2.1 229 10.1
2010-09-08 07:42:26 51°13.34 2°51.378 175.6 2.1 229 10
2010-09-08 07:42:31 51°13.338 2°51.374 175.7 2.1 230 10.1
2010-09-08 07:42:36 51°13.337 2°51.37 176 2.1 231 10.1
2010-09-08 07:42:41 51°13.335 2°51.366 176.2 2.2 231 10.1
2010-09-08 07:42:46 51°13.333 2°51.363 176.5 2.2 229 10
2010-09-08 07:42:51 51°13.331 2°51.359 176.7 2.1 228 10.1
2010-09-08 07:42:56 51°13.329 2°51.356 176.9 2.2 230 10
2010-09-08 07:43:01 51°13.327 2°51.352 177.2 2.2 230 10
2010-09-08 07:43:06 51°13.325 2°51.348 177.3 2.2 229 10.1
2010-09-08 07:43:11 51°13.323 2°51.345 177.5 2.1 229 10.1
2010-09-08 07:43:16 51°13.321 2°51.341 177.7 2.2 230 10.1
2010-09-08 07:43:21 51°13.319 2°51.337 177.9 2.2 230 10.1
2010-09-08 07:43:26 51°13.317 2°51.333 178 2.2 231 10.1
2010-09-08 07:43:31 51°13.315 2°51.33 178.2 2.2 230 10.1
2010-09-08 07:43:36 51°13.314 2°51.326 178.5 2.2 230 10.1
2010-09-08 07:43:40 51°13.312 2°51.324 178.7 2.2 230 10
2010-09-08 07:43:46 51°13.309 2°51.319 178.9 2.2 229 10.1
2010-09-08 07:43:51 51°13.308 2°51.315 179.1 2.2 230 10.1
2010-09-08 07:43:56 51°13.305 2°51.312 179.3 2.2 228 10.1
2010-09-08 07:44:01 51°13.304 2°51.308 179.4 2.2 229 10
2010-09-08 07:44:06 51°13.302 2°51.305 179.4 2.1 228 10.1
2010-09-08 07:44:11 51°13.3 2°51.301 179.7 2.2 229 10.2
2010-09-08 07:44:16 51°13.298 2°51.298 179.8 2.2 228 10.1
2010-09-08 07:44:21 51°13.296 2°51.294 180 2.2 229 10.1
2010-09-08 07:44:26 51°13.294 2°51.29 180.1 2.2 229 10.1
2010-09-08 07:44:31 51°13.292 2°51.287 180.1 2.2 229 10.1
2010-09-08 07:44:36 51°13.29 2°51.283 180.2 2.2 228 10.1
2010-09-08 07:44:41 51°13.288 2°51.28 180.2 2.2 228 10.1
2010-09-08 07:44:46 51°13.286 2°51.276 180.2 2.2 227 10.1
2010-09-08 07:44:51 51°13.284 2°51.273 180.3 2.2 228 10.1
2010-09-08 07:44:56 51°13.282 2°51.269 180.4 2.2 227 10.1
2010-09-08 07:45:01 51°13.28 2°51.265 180.5 2.2 228 10.1
2010-09-08 07:45:06 51°13.277 2°51.262 180.5 2.2 227 10
2010-09-08 07:45:11 51°13.275 2°51.258 180.7 2.2 227 10.1
2010-09-08 07:45:16 51°13.273 2°51.254 180.7 2.2 226 10.1
2010-09-08 07:45:21 51°13.271 2°51.25 180.8 2.2 229 10
2010-09-08 07:45:26 51°13.269 2°51.247 180.8 2.2 227 10.1
2010-09-08 07:45:31 51°13.266 2°51.243 180.9 2.2 227 10.1
2010-09-08 07:45:36 51°13.264 2°51.24 181 2.2 227 10
2010-09-08 07:45:40 51°13.263 2°51.237 181.2 2.2 228 10.1
2010-09-08 07:45:46 51°13.26 2°51.232 181.4 2.3 229 10
2010-09-08 07:45:51 51°13.258 2°51.229 181.5 2.2 227 10.1
2010-09-08 07:45:56 51°13.256 2°51.225 181.6 2.2 228 10.2
2010-09-08 07:46:01 51°13.254 2°51.222 181.8 2.2 229 10.1
2010-09-08 07:46:06 51°13.252 2°51.218 181.8 2.2 227 10.2
2010-09-08 07:46:11 51°13.25 2°51.215 182 2.2 227 10.2
2010-09-08 07:46:16 51°13.248 2°51.211 182.3 2.2 227 10.1
2010-09-08 07:46:20 51°13.246 2°51.208 182.4 2.3 228 10.1
2010-09-08 07:46:26 51°13.243 2°51.203 182.7 2.3 229 10.1
2010-09-08 07:46:31 51°13.241 2°51.2 182.9 2.2 227 10.2
2010-09-08 07:46:36 51°13.239 2°51.196 183 2.3 227 10.1
2010-09-08 07:46:40 51°13.237 2°51.194 183.1 2.2 226 10.1
2010-09-08 07:46:46 51°13.235 2°51.189 183.4 2.3 227 10.1
2010-09-08 07:46:51 51°13.233 2°51.185 183.6 2.3 228 10.1
2010-09-08 07:46:56 51°13.231 2°51.181 183.8 2.2 227 10.1
2010-09-08 07:47:01 51°13.229 2°51.177 184.3 2.3 229 10.1
2010-09-08 07:47:06 51°13.226 2°51.174 184.5 2.3 227 10.1
2010-09-08 07:47:11 51°13.224 2°51.17 184.8 2.3 228 10.1
2010-09-08 07:47:16 51°13.222 2°51.166 185.2 2.3 229 10.1
2010-09-08 07:47:21 51°13.22 2°51.162 185.5 2.3 231 10.1
2010-09-08 07:47:26 51°13.218 2°51.159 185.9 2.3 230 10.1
2010-09-08 07:47:31 51°13.216 2°51.155 186.3 2.3 230 10.1
2010-09-08 07:47:36 51°13.214 2°51.151 186.7 2.2 229 10.2
2010-09-08 07:47:41 51°13.212 2°51.147 187.3 2.3 230 10.1
2010-09-08 07:47:46 51°13.21 2°51.144 187.4 2.2 229 10
2010-09-08 07:47:51 51°13.207 2°51.139 188 2.3 230 10
2010-09-08 07:47:56 51°13.205 2°51.136 188.4 2.3 230 10
2010-09-08 07:48:00 51°13.204 2°51.133 188.8 2.3 229 10
2010-09-08 07:48:06 51°13.201 2°51.128 189.4 2.3 230 10.1
2010-09-08 07:48:11 51°13.199 2°51.124 189.8 2.3 230 10.1
2010-09-08 07:48:16 51°13.197 2°51.12 190.2 2.3 229 10.1
2010-09-08 07:48:21 51°13.195 2°51.117 190.4 2.3 230 10
2010-09-08 07:48:26 51°13.193 2°51.113 191 2.3 229 10.1
2010-09-08 07:48:31 51°13.191 2°51.109 191.3 2.3 229 10.1
2010-09-08 07:48:36 51°13.189 2°51.105 191.7 2.3 230 10.1
2010-09-08 07:48:40 51°13.187 2°51.102 192 2.3 231 10.1
2010-09-08 07:48:46 51°13.185 2°51.097 192.3 2.3 229 10.1
2010-09-08 07:48:51 51°13.182 2°51.093 192.5 2.4 230 10
2010-09-08 07:48:56 51°13.181 2°51.089 192.8 2.3 230 10
2010-09-08 07:49:00 51°13.179 2°51.086 193.1 2.3 229 10
2010-09-08 07:49:06 51°13.176 2°51.081 193.3 2.3 230 10.1
2010-09-08 07:49:11 51°13.174 2°51.078 193.5 2.3 229 10.1
2010-09-08 07:49:16 51°13.172 2°51.074 193.7 2.3 228 10.1
2010-09-08 07:49:21 51°13.17 2°51.07 193.9 2.3 228 10
2010-09-08 07:49:26 51°13.168 2°51.066 194.1 2.3 230 10.1
2010-09-08 07:49:31 51°13.166 2°51.062 194.4 2.3 229 10.1
2010-09-08 07:49:36 51°13.164 2°51.058 194.6 2.3 230 10.1
2010-09-08 07:49:41 51°13.162 2°51.054 194.9 2.3 230 10.1
2010-09-08 07:49:46 51°13.16 2°51.05 195.2 2.3 230 10.1
2010-09-08 07:49:51 51°13.158 2°51.046 195.4 2.3 231 10.1
2010-09-08 07:49:56 51°13.156 2°51.042 195.9 2.3 230 10.1
2010-09-08 07:50:01 51°13.154 2°51.039 196.1 2.3 230 10.1
2010-09-08 07:50:06 51°13.152 2°51.035 196.3 2.3 229 10
2010-09-08 07:50:11 51°13.15 2°51.031 196.8 2.3 230 10
2010-09-08 07:50:16 51°13.148 2°51.027 197.2 2.3 232 10.1
2010-09-08 07:50:21 51°13.146 2°51.023 197.5 2.3 232 10.1
2010-09-08 07:50:26 51°13.144 2°51.019 197.7 2.3 231 10
2010-09-08 07:50:31 51°13.142 2°51.015 198 2.3 230 10.1
2010-09-08 07:50:36 51°13.14 2°51.011 198.2 2.3 231 10
2010-09-08 07:50:41 51°13.138 2°51.007 198.4 2.2 232 10.1
2010-09-08 07:50:46 51°13.136 2°51.003 198.7 2.3 231 10.1
2010-09-08 07:50:51 51°13.134 2°50.999 198.7 2.3 231 10
2010-09-08 07:50:56 51°13.132 2°50.995 198.9 2.2 229 10.1
2010-09-08 07:51:01 51°13.13 2°50.992 199.2 2.2 229 10.2
2010-09-08 07:51:06 51°13.128 2°50.988 199.4 2.2 233 10.2
2010-09-08 07:51:11 51°13.127 2°50.984 199.6 2.3 233 10.1
2010-09-08 07:51:16 51°13.124 2°50.98 199.8 2.3 233 10.1
2010-09-08 07:51:21 51°13.122 2°50.976 200 2.3 232 10.1
2010-09-08 07:51:26 51°13.12 2°50.972 200.3 2.2 230 10
2010-09-08 07:51:31 51°13.118 2°50.969 200.6 2.2 231 10.1
2010-09-08 07:51:36 51°13.116 2°50.965 200.9 2.3 231 10.2
2010-09-08 07:51:41 51°13.114 2°50.961 201.1 2.3 232 10.1
2010-09-08 07:51:46 51°13.112 2°50.957 201.2 2.2 231 10.1
2010-09-08 07:51:51 51°13.11 2°50.953 201.6 2.3 231 10.1
2010-09-08 07:51:56 51°13.108 2°50.949 201.7 2.3 231 10.1
2010-09-08 07:52:01 51°13.106 2°50.946 201.9 2.2 230 10.1
2010-09-08 07:52:06 51°13.104 2°50.941 202.1 2.3 233 10.1
2010-09-08 07:52:11 51°13.102 2°50.937 202.3 2.2 230 10
2010-09-08 07:52:16 51°13.101 2°50.933 202.6 2.3 233 10
2010-09-08 07:52:21 51°13.098 2°50.93 202.6 2.3 232 10.1
2010-09-08 07:52:26 51°13.096 2°50.926 202.8 2.3 232 10.1
2010-09-08 07:52:31 51°13.094 2°50.922 203 2.3 230 10.1
2010-09-08 07:52:36 51°13.093 2°50.918 203.3 2.3 232 10.1
2010-09-08 07:52:41 51°13.091 2°50.914 203.7 2.3 235 10
2010-09-08 07:52:46 51°13.089 2°50.91 204 2.2 232 10
2010-09-08 07:52:51 51°13.087 2°50.906 204.2 2.3 234 10.1
2010-09-08 07:52:56 51°13.085 2°50.903 204.4 2.2 232 10.1
2010-09-08 07:53:01 51°13.083 2°50.899 204.7 2.3 234 10.1
2010-09-08 07:53:06 51°13.081 2°50.895 204.9 2.2 232 10.1
2010-09-08 07:53:11 51°13.079 2°50.891 205.3 2.3 231 10.1
2010-09-08 07:53:16 51°13.077 2°50.887 205.5 2.2 231 10.1
2010-09-08 07:53:21 51°13.075 2°50.883 205.9 2.2 231 10.2
2010-09-08 07:53:26 51°13.073 2°50.879 206.2 2.3 233 10.1
2010-09-08 07:53:31 51°13.071 2°50.876 206.8 2.2 232 10.1
2010-09-08 07:53:36 51°13.069 2°50.872 206.9 2.3 232 10
2010-09-08 07:53:41 51°13.067 2°50.868 207.2 2.3 232 10
2010-09-08 07:53:46 51°13.065 2°50.864 207.7 2.3 232 10.2
2010-09-08 07:53:51 51°13.063 2°50.86 208 2.3 234 10.1
2010-09-08 07:53:56 51°13.061 2°50.856 208.4 2.2 232 10.2
2010-09-08 07:54:01 51°13.059 2°50.852 208.7 2.3 233 10.1
2010-09-08 07:54:06 51°13.057 2°50.848 209.1 2.3 232 10.1
2010-09-08 07:54:11 51°13.055 2°50.844 209.5 2.5 233 10.1
2010-09-08 07:54:16 51°13.053 2°50.84 209.1 2.5 227 10.1
2010-09-08 07:54:21 51°13.05 2°50.835 208.5 2.7 230 10.1
2010-09-08 07:54:26 51°13.048 2°50.831 208 2.7 226 10.1
2010-09-08 07:54:31 51°13.045 2°50.826 207.6 2.8 225 10.1
2010-09-08 07:54:36 51°13.042 2°50.822 206.2 2.9 226 10
2010-09-08 07:54:41 51°13.039 2°50.818 205.4 2.8 222 10.1
2010-09-08 07:54:46 51°13.036 2°50.813 204.3 2.8 223 10.1
2010-09-08 07:54:51 51°13.033 2°50.809 202.7 2.9 223 10
2010-09-08 07:54:56 51°13.03 2°50.805 201.2 2.9 221 10
2010-09-08 07:55:00 51°13.028 2°50.801 199.8 2.9 222 10
2010-09-08 07:55:06 51°13.025 2°50.796 198 2.8 220 10
2010-09-08 07:55:11 51°13.022 2°50.792 196.6 2.9 220 10
2010-09-08 07:55:16 51°13.018 2°50.788 194.8 2.9 219 9.8
2010-09-08 07:55:21 51°13.015 2°50.784 193 2.9 216 10
2010-09-08 07:55:26 51°13.012 2°50.78 191.4 2.9 218 10.1
2010-09-08 07:55:31 51°13.009 2°50.776 189.6 2.9 218 10
2010-09-08 07:55:36 51°13.006 2°50.772 187.9 2.9 217 10
2010-09-08 07:55:41 51°13.002 2°50.769 186.1 2.9 215 9.9
2010-09-08 07:55:46 51°12.999 2°50.766 184.4 2.9 212 9.9
2010-09-08 07:55:51 51°12.995 2°50.762 182.8 3 210 9.9
2010-09-08 07:55:56 51°12.992 2°50.759 180.4 3 209 9.9
2010-09-08 07:56:01 51°12.988 2°50.756 178.1 3.1 207 9.9
2010-09-08 07:56:06 51°12.984 2°50.753 176.4 3.1 205 9.9
2010-09-08 07:56:11 51°12.98 2°50.75 175 3.3 203 9.9
2010-09-08 07:56:16 51°12.975 2°50.747 174 3.4 200 10
2010-09-08 07:56:21 51°12.97 2°50.745 172.9 3.7 199 9.9
2010-09-08 07:56:26 51°12.965 2°50.743 172 3.8 196 10.1
2010-09-08 07:56:31 51°12.959 2°50.74 171.3 4 195 9.9
2010-09-08 07:56:36 51°12.954 2°50.738 171.2 4.2 195 9.9
2010-09-08 07:56:41 51°12.948 2°50.736 171.8 4.4 193 9.7
2010-09-08 07:56:46 51°12.941 2°50.733 173.1 4.7 194 9.8
2010-09-08 07:56:51 51°12.934 2°50.731 174.5 4.9 194 9.8
2010-09-08 07:56:56 51°12.927 2°50.728 176.3 5.2 194 9.7
2010-09-08 07:57:00 51°12.921 2°50.725 178.5 5.5 196 9.7
2010-09-08 07:57:06 51°12.912 2°50.721 180.8 5.8 197 9.6
2010-09-08 07:57:11 51°12.904 2°50.717 183.7 5.9 198 9.5
2010-09-08 07:57:16 51°12.897 2°50.712 186.7 6 201 9.5
2010-09-08 07:57:21 51°12.889 2°50.707 189.7 6 202 9.5
2010-09-08 07:57:26 51°12.881 2°50.702 192.4 6 205 9.4
2010-09-08 07:57:31 51°12.874 2°50.696 194.8 6 207 9.4
2010-09-08 07:57:36 51°12.867 2°50.689 197.2 6 208 9.4
2010-09-08 07:57:41 51°12.859 2°50.683 198.8 6 210 9.3
2010-09-08 07:57:46 51°12.852 2°50.676 199.9 6 211 9.3
2010-09-08 07:57:51 51°12.845 2°50.669 201.1 5.9 211 9.3
2010-09-08 07:57:56 51°12.838 2°50.663 202.2 5.9 212 9.2
2010-09-08 07:58:01 51°12.831 2°50.656 203 5.8 213 9.2
2010-09-08 07:58:06 51°12.825 2°50.649 203.8 5.8 213 9.3
2010-09-08 07:58:11 51°12.818 2°50.642 204.5 5.7 214 9.3
2010-09-08 07:58:16 51°12.811 2°50.635 205.2 5.6 213 9.3
2010-09-08 07:58:21 51°12.805 2°50.628 206.1 5.6 215 9.2
2010-09-08 07:58:26 51°12.799 2°50.62 206.5 5.5 215 9.2
2010-09-08 07:58:31 51°12.793 2°50.613 207 5.5 215 9.2
2010-09-08 07:58:36 51°12.787 2°50.606 207.5 5.4 216 9.2
2010-09-08 07:58:41 51°12.781 2°50.6 207.7 5.3 215 9.2
2010-09-08 07:58:46 51°12.775 2°50.593 208 5.2 216 9.3
2010-09-08 07:58:51 51°12.769 2°50.586 208 5.2 216 9.2
2010-09-08 07:58:56 51°12.763 2°50.58 208 5.2 216 9.1
2010-09-08 07:59:00 51°12.759 2°50.574 207.8 5.1 215 9.1
2010-09-08 07:59:06 51°12.752 2°50.567 207.7 5 215 9.2
2010-09-08 07:59:11 51°12.746 2°50.561 207.4 5 215 9.1
2010-09-08 07:59:16 51°12.741 2°50.554 207 4.9 216 9.1
2010-09-08 07:59:21 51°12.735 2°50.547 206.7 4.9 216 9
2010-09-08 07:59:26 51°12.73 2°50.542 206.3 4.8 215 8.9
2010-09-08 07:59:31 51°12.724 2°50.536 206.2 4.7 214 9.1
2010-09-08 07:59:36 51°12.719 2°50.53 206.1 4.7 214 9
2010-09-08 07:59:41 51°12.714 2°50.524 205.9 4.7 216 8.9
2010-09-08 07:59:46 51°12.709 2°50.518 205.6 4.6 216 9
2010-09-08 07:59:51 51°12.703 2°50.513 205.8 4.5 214 9
2010-09-08 07:59:56 51°12.698 2°50.507 205.6 4.5 216 8.9
2010-09-08 08:00:01 51°12.693 2°50.501 205.5 4.5 216 8.9
2010-09-08 08:00:06 51°12.689 2°50.495 205.8 4.4 215 9
2010-09-08 08:00:11 51°12.684 2°50.489 206 4.4 215 9
2010-09-08 08:00:16 51°12.678 2°50.483 206.1 4.4 216 9
2010-09-08 08:00:20 51°12.675 2°50.479 206.2 4.4 216 8.9
2010-09-08 08:00:26 51°12.669 2°50.472 206.5 4.4 217 8.9
2010-09-08 08:00:31 51°12.664 2°50.466 207 4.3 217 8.9
2010-09-08 08:00:36 51°12.66 2°50.46 207.3 4.3 219 8.8
2010-09-08 08:00:41 51°12.655 2°50.454 207.5 4.3 217 8.9
2010-09-08 08:00:46 51°12.65 2°50.448 207.7 4.3 218 8.8
2010-09-08 08:00:51 51°12.646 2°50.442 207.7 4.3 219 8.8
2010-09-08 08:00:56 51°12.641 2°50.437 207.7 4.3 219 8.8
2010-09-08 08:01:01 51°12.636 2°50.431 207.7 4.3 218 8.9
2010-09-08 08:01:06 51°12.631 2°50.425 207.6 4.3 219 8.9
2010-09-08 08:01:11 51°12.627 2°50.419 207.5 4.3 219 8.8
2010-09-08 08:01:16 51°12.622 2°50.413 207.6 4.3 219 8.8
2010-09-08 08:01:21 51°12.618 2°50.407 208 4.3 220 8.8
2010-09-08 08:01:26 51°12.613 2°50.401 209 4.3 220 8.8
2010-09-08 08:01:31 51°12.609 2°50.395 210.3 4.2 220 8.8
2010-09-08 08:01:36 51°12.604 2°50.388 211.3 4.3 222 8.8
2010-09-08 08:01:41 51°12.6 2°50.382 212.5 4.3 222 8.8
2010-09-08 08:01:46 51°12.596 2°50.375 214 4.3 222 8.8
2010-09-08 08:01:51 51°12.591 2°50.369 215.2 4.3 224 8.7
2010-09-08 08:01:56 51°12.587 2°50.362 216.4 4.3 223 8.8
2010-09-08 08:02:00 51°12.584 2°50.357 217.6 4.3 226 8.9
2010-09-08 08:02:06 51°12.579 2°50.349 218.6 4.3 225 8.7
2010-09-08 08:02:11 51°12.574 2°50.342 219.4 4.3 225 8.8
2010-09-08 08:02:16 51°12.57 2°50.335 220.1 4.3 225 8.8
2010-09-08 08:02:20 51°12.567 2°50.329 220.8 4.3 226 8.9
2010-09-08 08:02:26 51°12.562 2°50.321 221.4 4.3 226 8.9
2010-09-08 08:02:31 51°12.558 2°50.314 221.8 4.4 226 8.8
2010-09-08 08:02:36 51°12.554 2°50.307 222.1 4.3 227 8.7
2010-09-08 08:02:41 51°12.55 2°50.3 222.7 4.3 227 8.8
2010-09-08 08:02:46 51°12.546 2°50.293 222.9 4.3 228 8.9
2010-09-08 08:02:51 51°12.542 2°50.286 222.9 4.3 228 8.8
2010-09-08 08:02:56 51°12.538 2°50.279 223.2 4.3 228 8.8
2010-09-08 08:03:01 51°12.534 2°50.272 223.5 4.3 229 8.7
2010-09-08 08:03:06 51°12.53 2°50.265 223.6 4.3 227 8.8
2010-09-08 08:03:11 51°12.526 2°50.258 223.6 4.3 229 8.7
2010-09-08 08:03:16 51°12.522 2°50.25 224.1 4.3 229 8.7
2010-09-08 08:03:21 51°12.518 2°50.243 224.9 4.3 229 8.8
2010-09-08 08:03:26 51°12.514 2°50.236 226 4.3 230 8.8
2010-09-08 08:03:31 51°12.51 2°50.228 226.8 4.3 230 8.8
2010-09-08 08:03:36 51°12.506 2°50.221 227.9 4.3 231 8.9
2010-09-08 08:03:41 51°12.503 2°50.213 228.8 4.3 231 8.9
2010-09-08 08:03:46 51°12.499 2°50.206 229.7 4.3 231 8.8
2010-09-08 08:03:51 51°12.495 2°50.198 229.9 4.3 234 8.7
2010-09-08 08:03:56 51°12.492 2°50.19 230.9 4.3 232 8.9
2010-09-08 08:04:01 51°12.488 2°50.183 231.6 4.4 234 8.9
2010-09-08 08:04:06 51°12.484 2°50.175 232.1 4.4 234 8.7
2010-09-08 08:04:11 51°12.481 2°50.167 232.3 4.3 235 8.9
2010-09-08 08:04:16 51°12.477 2°50.16 233 4.3 233 8.9
2010-09-08 08:04:20 51°12.475 2°50.153 233.3 4.3 234 8.9
2010-09-08 08:04:26 51°12.47 2°50.144 233.7 4.4 234 8.8
2010-09-08 08:04:31 51°12.467 2°50.136 234.1 4.4 236 8.7
2010-09-08 08:04:36 51°12.463 2°50.128 234.7 4.3 233 8.8
2010-09-08 08:04:41 51°12.46 2°50.12 235.4 4.4 236 8.8
2010-09-08 08:04:46 51°12.457 2°50.112 235.8 4.4 237 8.7
2010-09-08 08:04:51 51°12.454 2°50.104 236.3 4.4 237 8.8
2010-09-08 08:04:56 51°12.45 2°50.095 236.9 4.4 236 8.9
2010-09-08 08:05:00 51°12.448 2°50.089 237.4 4.4 238 8.8
2010-09-08 08:05:06 51°12.444 2°50.079 237.7 4.4 237 8.6
2010-09-08 08:05:11 51°12.441 2°50.071 238 4.4 237 8.8
2010-09-08 08:05:16 51°12.438 2°50.062 238.4 4.4 239 8.9
2010-09-08 08:05:21 51°12.434 2°50.054 238.8 4.4 238 8.7
2010-09-08 08:05:26 51°12.431 2°50.046 238.9 4.4 238 8.6
2010-09-08 08:05:31 51°12.428 2°50.038 239 4.4 238 8.6
2010-09-08 08:05:36 51°12.425 2°50.031 238.9 4.3 238 8.7
2010-09-08 08:05:41 51°12.423 2°50.026 238.8 4.2 237 8.8
2010-09-08 08:05:46 51°12.421 2°50.021 238.6 4.2 239 8.7
2010-09-08 08:05:51 51°12.416 2°50.009 238.5 4.2 238 8.7
2010-09-08 08:05:56 51°12.412 2°50 238.6 4.3 237 8.7
2010-09-08 08:06:01 51°12.409 2°49.991 238.4 4.3 238 8.8
2010-09-08 08:06:06 51°12.406 2°49.983 238.5 4.3 238 8.7
2010-09-08 08:06:11 51°12.402 2°49.975 238.6 4.3 238 8.7
2010-09-08 08:06:16 51°12.399 2°49.967 238.6 4.3 238 8.7
2010-09-08 08:06:20 51°12.397 2°49.961 238.6 4.3 237 8.7
2010-09-08 08:06:26 51°12.393 2°49.951 238.6 4.3 239 8.7
2010-09-08 08:06:31 51°12.39 2°49.943 238.4 4.3 237 8.7
2010-09-08 08:06:36 51°12.387 2°49.935 238.2 4.3 238 8.7
2010-09-08 08:06:40 51°12.384 2°49.929 238 4.3 236 8.8
2010-09-08 08:06:46 51°12.38 2°49.919 237.9 4.3 238 8.7
2010-09-08 08:06:51 51°12.377 2°49.911 237.7 4.3 238 8.6
2010-09-08 08:06:56 51°12.374 2°49.903 237.6 4.3 237 8.7
2010-09-08 08:07:00 51°12.371 2°49.897 237.4 4.3 237 8.7
2010-09-08 08:07:06 51°12.367 2°49.887 237.3 4.3 237 8.7
2010-09-08 08:07:11 51°12.364 2°49.879 237.4 4.3 236 8.7
2010-09-08 08:07:16 51°12.36 2°49.871 237.4 4.3 237 8.7
2010-09-08 08:07:20 51°12.358 2°49.865 237.3 4.3 236 8.8
2010-09-08 08:07:26 51°12.354 2°49.855 237.2 4.3 238 8.7
2010-09-08 08:07:31 51°12.351 2°49.847 236.9 4.3 236 8.7
2010-09-08 08:07:36 51°12.347 2°49.839 237.1 4.3 237 8.8
2010-09-08 08:07:40 51°12.345 2°49.833 237.2 4.3 237 8.6
2010-09-08 08:07:46 51°12.341 2°49.823 237.2 4.3 237 8.6
2010-09-08 08:07:51 51°12.337 2°49.815 237.1 4.3 237 8.6
2010-09-08 08:07:56 51°12.334 2°49.807 237.1 4.3 236 8.7
2010-09-08 08:08:01 51°12.331 2°49.799 237 4.3 236 8.7
2010-09-08 08:08:06 51°12.328 2°49.791 236.9 4.3 236 8.7
2010-09-08 08:08:11 51°12.324 2°49.783 236.7 4.3 238 8.6
2010-09-08 08:08:16 51°12.321 2°49.775 236.4 4.3 236 8.7
2010-09-08 08:08:21 51°12.318 2°49.767 236.4 4.3 236 8.7
2010-09-08 08:08:26 51°12.315 2°49.759 236.4 4.3 237 8.7
2010-09-08 08:08:31 51°12.311 2°49.751 236.1 4.3 236 8.6
2010-09-08 08:08:36 51°12.308 2°49.743 236 4.3 236 8.6
2010-09-08 08:08:40 51°12.305 2°49.737 236 4.3 237 8.6
2010-09-08 08:08:46 51°12.301 2°49.728 236 4.3 236 8.7
2010-09-08 08:08:51 51°12.298 2°49.72 236 4.3 236 8.7
2010-09-08 08:08:56 51°12.294 2°49.712 236 4.3 236 8.7
2010-09-08 08:09:00 51°12.292 2°49.705 235.8 4.3 236 8.6
2010-09-08 08:09:06 51°12.288 2°49.696 235.5 4.3 237 8.6
2010-09-08 08:09:11 51°12.285 2°49.688 235.5 4.3 236 8.7
2010-09-08 08:09:16 51°12.281 2°49.68 235.5 4.3 236 8.8
2010-09-08 08:09:20 51°12.279 2°49.674 235.7 4.3 234 8.9
2010-09-08 08:09:26 51°12.275 2°49.664 236 4.3 236 8.9
2010-09-08 08:09:31 51°12.271 2°49.656 235.8 4.3 236 8.7
2010-09-08 08:09:36 51°12.268 2°49.649 235.7 4.3 235 8.7
2010-09-08 08:09:40 51°12.265 2°49.642 235.9 4.3 236 8.7
2010-09-08 08:09:46 51°12.261 2°49.632 235.8 4.3 237 8.6
2010-09-08 08:09:51 51°12.258 2°49.625 235.7 4.3 236 8.7
2010-09-08 08:09:56 51°12.255 2°49.617 235.9 4.3 236 8.7
2010-09-08 08:10:00 51°12.252 2°49.61 236 4.3 237 8.6
2010-09-08 08:10:06 51°12.248 2°49.601 235.8 4.3 235 8.7
2010-09-08 08:10:11 51°12.244 2°49.593 235.7 4.3 235 8.7
2010-09-08 08:10:16 51°12.241 2°49.585 235.5 4.3 237 8.6
2010-09-08 08:10:21 51°12.238 2°49.577 235.2 4.3 236 8.7
2010-09-08 08:10:26 51°12.234 2°49.569 235.1 4.3 236 8.7
2010-09-08 08:10:31 51°12.231 2°49.562 235.2 4.3 237 8.5
2010-09-08 08:10:36 51°12.228 2°49.554 235.1 4.3 236 8.5
2010-09-08 08:10:40 51°12.225 2°49.547 235.3 4.3 236 8.7